Atlanta, Georgia
Current Conditions -  °F | °C
As of 1:52 PM on Friday 24 Oct 2014 (Local Time) from KATL Reporting Station
Few Clouds Few Clouds  
Wind Chill: 70°   Ceiling: Unl
Heat Index: 70°   Visibility: 10mi
Dew Point: 45°   Wind: 0mph
Humidity: 41%   Direction: NA
Pressure: 30.04"   Gusts: NA
Location:  33.75°N, 84.39°W
Report Text: KATL 241752Z 00000KT 10SM FEW150 21/07 A3004 RMK AO2 SLP168 T02110072 10211 20106 58013
Loading
Personal Weather Stations






























Interactive Weather Map
Tropical Storm Tracking
New forecast layout! Learn more

10-Day Weather Forecast

Advertisements
Track Severe Weather on mobile